Time;durP1;ratioP1;P1;durP2;ratioP2;P2;SDS_P1;SDS_P2;PMS_P1;PMS_P2;Temp;Humidity;BMP_temperature;BMP_pressure;BME280_temperature;BME280_humidity;BME280_pressure;Samples;Min_cycle;Max_cycle;Signal;HPM_P1;HPM_P2
2022/01/04 00:01:36;;;;;;;23.58;14.60;;;;;;;;;;5024186;28;20770;-56
2022/01/04 00:04:01;;;;;;;30.23;16.08;;;;;;;;;;5027287;28;20521;-55
2022/01/04 00:06:27;;;;;;;26.65;15.63;;;;;;;;;;5027290;28;20025;-54
2022/01/04 00:08:59;;;;;;;34.53;15.10;;;;;;;;;;5027391;28;20031;-53
2022/01/04 00:11:42;;;;;;;24.35;15.90;;;;;;;;;;5019624;28;20483;-56
2022/01/04 00:14:08;;;;;;;23.90;15.10;;;;;;;;;;5020668;28;20040;-55
2022/01/04 00:16:33;;;;;;;25.23;15.55;;;;;;;;;;5019421;28;20805;-52
2022/01/04 00:18:59;;;;;;;24.38;14.82;;;;;;;;;;5024111;28;20053;-49
2022/01/04 00:21:25;;;;;;;26.85;14.82;;;;;;;;;;5026967;28;20482;-50
2022/01/04 00:23:50;;;;;;;28.90;16.10;;;;;;;;;;5016666;28;20379;-55
2022/01/04 00:26:16;;;;;;;24.60;15.18;;;;;;;;;;5024378;28;20034;-53
2022/01/04 00:28:42;;;;;;;24.55;14.85;;;;;;;;;;5053737;28;20088;-55
2022/01/04 00:31:07;;;;;;;28.90;14.20;;;;;;;;;;5018841;28;20487;-51
2022/01/04 00:33:33;;;;;;;23.13;13.60;;;;;;;;;;5027912;28;20032;-53
2022/01/04 00:35:59;;;;;;;30.75;14.27;;;;;;;;;;5019375;28;20542;-54
2022/01/04 00:38:24;;;;;;;25.67;14.00;;;;;;;;;;5028785;28;20052;-56
2022/01/04 00:40:50;;;;;;;20.50;12.93;;;;;;;;;;5020775;28;20036;-54
2022/01/04 00:43:16;;;;;;;25.52;14.45;;;;;;;;;;5024707;28;20090;-54
2022/01/04 00:45:42;;;;;;;25.45;13.95;;;;;;;;;;5027583;28;20616;-51
2022/01/04 00:50:36;;;;;;;24.80;13.88;;;;;;;;;;5025321;28;20498;-53
2022/01/04 00:53:03;;;;;;;29.92;13.98;;;;;;;;;;5025449;28;20045;-51
2022/01/04 00:55:29;;;;;;;21.70;13.90;;;;;;;;;;5025824;28;20374;-53
2022/01/04 00:57:55;;;;;;;23.35;13.73;;;;;;;;;;5026577;28;20033;-50
2022/01/04 01:00:22;;;;;;;20.50;12.80;;;;;;;;;;5018898;28;20029;-54
2022/01/04 01:02:48;;;;;;;19.85;13.13;;;;;;;;;;5025860;28;20034;-55
2022/01/04 01:05:15;;;;;;;22.52;12.93;;;;;;;;;;5023643;28;20052;-50
2022/01/04 01:07:42;;;;;;;20.58;12.90;;;;;;;;;;5019190;28;20388;-56
2022/01/04 01:12:55;;;;;;;16.85;11.80;;;;;;;;;;5019725;28;20138;-53
2022/01/04 01:15:21;;;;;;;20.90;12.77;;;;;;;;;;5022383;28;20060;-54
2022/01/04 01:17:47;;;;;;;18.95;11.75;;;;;;;;;;5018805;28;20032;-53
2022/01/04 01:20:14;;;;;;;20.83;12.48;;;;;;;;;;5022359;28;20045;-55
2022/01/04 01:22:41;;;;;;;21.23;12.30;;;;;;;;;;5025323;28;20033;-54
2022/01/04 01:25:09;;;;;;;19.42;12.00;;;;;;;;;;5016874;28;20025;-56
2022/01/04 01:27:34;;;;;;;20.30;11.95;;;;;;;;;;5024903;28;20017;-54
2022/01/04 01:30:00;;;;;;;23.25;11.73;;;;;;;;;;5024682;28;20048;-52
2022/01/04 01:32:26;;;;;;;26.48;12.23;;;;;;;;;;5014442;28;20073;-54
2022/01/04 01:34:52;;;;;;;20.70;11.75;;;;;;;;;;5018789;28;20049;-54
2022/01/04 01:37:18;;;;;;;17.40;10.85;;;;;;;;;;5022830;28;20150;-51
2022/01/04 01:39:43;;;;;;;22.27;11.80;;;;;;;;;;5022300;28;20083;-53
2022/01/04 01:42:09;;;;;;;21.10;12.65;;;;;;;;;;5020535;28;20036;-55
2022/01/04 01:44:36;;;;;;;18.83;11.32;;;;;;;;;;5022488;28;20025;-56
2022/01/04 01:47:02;;;;;;;26.25;12.30;;;;;;;;;;5021759;28;20025;-55
2022/01/04 01:49:28;;;;;;;22.58;11.52;;;;;;;;;;5023487;28;20497;-55
2022/01/04 01:51:55;;;;;;;20.50;11.93;;;;;;;;;;5025784;28;20057;-53
2022/01/04 01:54:21;;;;;;;19.42;12.13;;;;;;;;;;5025705;28;20044;-53
2022/01/04 01:56:47;;;;;;;23.88;12.60;;;;;;;;;;5020731;28;20065;-56
2022/01/04 01:59:14;;;;;;;18.55;10.65;;;;;;;;;;5015372;28;20983;-55
2022/01/04 02:01:39;;;;;;;18.17;10.98;;;;;;;;;;5026085;28;20033;-55
2022/01/04 02:04:06;;;;;;;26.50;11.40;;;;;;;;;;5017252;28;20124;-53
2022/01/04 02:06:32;;;;;;;17.85;11.10;;;;;;;;;;5017266;28;20424;-55
2022/01/04 02:08:59;;;;;;;16.40;10.70;;;;;;;;;;5019284;28;20041;-56
2022/01/04 02:11:28;;;;;;;24.13;11.02;;;;;;;;;;5022391;28;20374;-55
2022/01/04 02:13:58;;;;;;;22.05;11.55;;;;;;;;;;5025205;28;20037;-54
2022/01/04 02:16:25;;;;;;;20.85;10.68;;;;;;;;;;5020382;28;20052;-55
2022/01/04 02:18:52;;;;;;;25.08;10.85;;;;;;;;;;5018865;28;20048;-56
2022/01/04 02:21:17;;;;;;;18.10;11.13;;;;;;;;;;5027954;28;20025;-52
2022/01/04 02:23:43;;;;;;;19.63;10.65;;;;;;;;;;5019858;28;20025;-49
2022/01/04 02:26:09;;;;;;;20.75;11.02;;;;;;;;;;5016177;28;20026;-52
2022/01/04 02:28:35;;;;;;;24.73;11.68;;;;;;;;;;5028615;28;20041;-49
2022/01/04 02:31:01;;;;;;;24.17;11.82;;;;;;;;;;5027034;28;20037;-52
2022/01/04 02:33:27;;;;;;;21.98;10.02;;;;;;;;;;5027316;28;20080;-51
2022/01/04 02:35:53;;;;;;;18.63;10.75;;;;;;;;;;5026723;28;20036;-50
2022/01/04 02:38:18;;;;;;;16.60;10.52;;;;;;;;;;5021637;28;20034;-50
2022/01/04 02:40:44;;;;;;;21.00;10.50;;;;;;;;;;5026397;28;20041;-50
2022/01/04 02:43:10;;;;;;;18.27;10.13;;;;;;;;;;5026346;28;20061;-50
2022/01/04 02:45:36;;;;;;;18.35;10.18;;;;;;;;;;5024939;28;20095;-51
2022/01/04 02:48:02;;;;;;;18.75;10.63;;;;;;;;;;5027335;28;20041;-50
2022/01/04 02:50:28;;;;;;;15.13;9.45;;;;;;;;;;5030356;28;20091;-49
2022/01/04 02:52:54;;;;;;;20.42;9.73;;;;;;;;;;5029534;28;20025;-50
2022/01/04 02:55:20;;;;;;;15.90;9.98;;;;;;;;;;5023074;28;20037;-51
2022/01/04 02:57:46;;;;;;;18.75;10.70;;;;;;;;;;5024794;28;20473;-51
2022/01/04 03:00:15;;;;;;;18.63;10.25;;;;;;;;;;5026727;28;20049;-48
2022/01/04 03:02:41;;;;;;;16.88;9.80;;;;;;;;;;5027611;28;20056;-50
2022/01/04 03:05:08;;;;;;;15.02;9.80;;;;;;;;;;5027841;28;20545;-50
2022/01/04 03:07:36;;;;;;;14.82;9.32;;;;;;;;;;5023410;28;20060;-48
2022/01/04 03:10:04;;;;;;;20.40;10.48;;;;;;;;;;5026761;28;20038;-49
2022/01/04 03:12:30;;;;;;;16.92;8.93;;;;;;;;;;5020547;28;20041;-50
2022/01/04 03:14:56;;;;;;;17.52;9.82;;;;;;;;;;5021039;28;20029;-54
2022/01/04 03:17:22;;;;;;;20.15;9.52;;;;;;;;;;5020240;28;20033;-51
2022/01/04 03:19:47;;;;;;;19.17;9.25;;;;;;;;;;5029242;28;20060;-48
2022/01/04 03:22:13;;;;;;;16.90;9.15;;;;;;;;;;5024107;28;20398;-49
2022/01/04 03:24:39;;;;;;;12.57;9.27;;;;;;;;;;5024436;28;20390;-49
2022/01/04 03:27:05;;;;;;;21.30;9.52;;;;;;;;;;5024595;28;20044;-50
2022/01/04 03:29:31;;;;;;;17.58;9.82;;;;;;;;;;5027237;28;20033;-50
2022/01/04 03:31:58;;;;;;;15.77;9.18;;;;;;;;;;5025963;28;20486;-54
2022/01/04 03:34:24;;;;;;;15.07;8.80;;;;;;;;;;5025566;28;20034;-51
2022/01/04 03:36:50;;;;;;;19.92;9.60;;;;;;;;;;5019862;28;20556;-51
2022/01/04 03:39:17;;;;;;;19.50;9.88;;;;;;;;;;5026445;28;20021;-53
2022/01/04 03:41:44;;;;;;;18.80;9.65;;;;;;;;;;5021972;28;20386;-49
2022/01/04 03:44:19;;;;;;;18.65;10.15;;;;;;;;;;5027467;28;20029;-51
2022/01/04 03:46:53;;;;;;;13.80;9.45;;;;;;;;;;5027699;28;20037;-49
2022/01/04 03:49:19;;;;;;;17.50;9.90;;;;;;;;;;5023227;28;20044;-48
2022/01/04 03:51:45;;;;;;;18.42;9.25;;;;;;;;;;5027925;28;20026;-53
2022/01/04 03:54:11;;;;;;;21.05;9.82;;;;;;;;;;5021428;28;20030;-49
2022/01/04 03:56:37;;;;;;;20.83;9.95;;;;;;;;;;5025894;28;20363;-57
2022/01/04 03:59:03;;;;;;;29.02;10.70;;;;;;;;;;5021760;28;20049;-53
2022/01/04 04:01:29;;;;;;;22.35;10.63;;;;;;;;;;5022998;28;20481;-53
2022/01/04 04:03:54;;;;;;;18.63;10.60;;;;;;;;;;5024390;28;20102;-48
2022/01/04 04:06:20;;;;;;;19.20;10.50;;;;;;;;;;5022667;28;20029;-51
2022/01/04 04:08:46;;;;;;;21.92;11.02;;;;;;;;;;5022484;28;20037;-52
2022/01/04 04:11:12;;;;;;;23.50;11.13;;;;;;;;;;5024088;28;20062;-55
2022/01/04 04:13:38;;;;;;;25.45;11.50;;;;;;;;;;5024103;28;20048;-52
2022/01/04 04:16:04;;;;;;;24.33;11.15;;;;;;;;;;5021763;28;20482;-52
2022/01/04 04:18:30;;;;;;;27.63;11.63;;;;;;;;;;4983426;28;1228654;-53
2022/01/04 04:20:56;;;;;;;20.23;11.10;;;;;;;;;;5023389;28;20046;-52
2022/01/04 04:23:22;;;;;;;20.63;11.68;;;;;;;;;;5024518;28;20041;-52
2022/01/04 04:25:48;;;;;;;17.73;11.25;;;;;;;;;;5026929;28;20033;-49
2022/01/04 04:28:13;;;;;;;25.33;12.00;;;;;;;;;;5024716;28;20088;-49
2022/01/04 04:30:39;;;;;;;27.00;12.27;;;;;;;;;;5021610;28;20030;-48
2022/01/04 04:33:05;;;;;;;23.52;11.55;;;;;;;;;;5026049;28;20877;-50
2022/01/04 04:35:31;;;;;;;28.42;12.98;;;;;;;;;;5025447;28;20108;-48
2022/01/04 04:38:01;;;;;;;23.63;11.70;;;;;;;;;;5020033;28;20040;-48
2022/01/04 04:40:27;;;;;;;22.40;12.38;;;;;;;;;;5027717;28;20037;-50
2022/01/04 04:42:53;;;;;;;18.92;11.80;;;;;;;;;;5023799;28;20092;-50
2022/01/04 04:45:19;;;;;;;23.58;12.38;;;;;;;;;;5024541;28;20043;-55
2022/01/04 04:47:45;;;;;;;20.92;12.85;;;;;;;;;;5025722;28;20037;-48
2022/01/04 04:50:11;;;;;;;20.08;12.52;;;;;;;;;;5022166;28;20041;-49
2022/01/04 04:52:37;;;;;;;22.75;12.38;;;;;;;;;;5022862;28;20474;-51
2022/01/04 04:55:07;;;;;;;27.27;13.07;;;;;;;;;;5026930;28;20032;-52
2022/01/04 04:57:32;;;;;;;23.73;12.65;;;;;;;;;;5028061;28;20033;-48
2022/01/04 04:59:58;;;;;;;23.23;12.98;;;;;;;;;;5023098;28;20412;-52
2022/01/04 05:02:24;;;;;;;21.33;12.23;;;;;;;;;;5022477;28;20034;-54
2022/01/04 05:04:50;;;;;;;22.27;11.63;;;;;;;;;;5015923;28;20029;-54
2022/01/04 05:07:16;;;;;;;22.98;12.35;;;;;;;;;;5022074;28;20138;-51
2022/01/04 05:09:41;;;;;;;21.05;12.52;;;;;;;;;;5025884;28;20030;-48
2022/01/04 05:12:08;;;;;;;17.35;11.48;;;;;;;;;;5025412;28;20045;-53
2022/01/04 05:14:34;;;;;;;21.67;12.93;;;;;;;;;;5022630;28;20128;-50
2022/01/04 05:17:00;;;;;;;22.13;12.05;;;;;;;;;;5024286;28;20033;-49
2022/01/04 05:19:25;;;;;;;23.05;12.18;;;;;;;;;;5023214;28;20095;-52
2022/01/04 05:21:51;;;;;;;18.25;11.75;;;;;;;;;;5018148;28;20029;-49
2022/01/04 05:24:17;;;;;;;24.52;13.27;;;;;;;;;;5025676;28;20026;-49
2022/01/04 05:26:42;;;;;;;20.02;12.18;;;;;;;;;;5026431;28;20029;-50
2022/01/04 05:29:08;;;;;;;24.05;13.50;;;;;;;;;;5023174;28;20026;-51
2022/01/04 05:31:34;;;;;;;21.35;11.52;;;;;;;;;;5023250;28;20144;-52
2022/01/04 05:34:00;;;;;;;20.80;12.43;;;;;;;;;;5026461;28;20086;-53
2022/01/04 05:36:26;;;;;;;18.25;12.50;;;;;;;;;;5027576;28;20053;-49
2022/01/04 05:38:51;;;;;;;22.02;12.07;;;;;;;;;;5025910;28;20100;-55
2022/01/04 05:41:17;;;;;;;21.45;12.65;;;;;;;;;;5021117;28;20057;-54
2022/01/04 05:43:43;;;;;;;26.60;12.93;;;;;;;;;;5023224;28;20045;-50
2022/01/04 05:46:09;;;;;;;21.15;11.82;;;;;;;;;;5014630;28;20147;-55
2022/01/04 05:48:35;;;;;;;20.75;11.70;;;;;;;;;;5020776;28;20460;-50
2022/01/04 05:51:00;;;;;;;19.63;11.13;;;;;;;;;;5022101;28;20041;-51
2022/01/04 05:53:26;;;;;;;19.63;11.73;;;;;;;;;;5025050;28;20037;-49
2022/01/04 05:55:52;;;;;;;20.48;10.52;;;;;;;;;;5021117;28;20109;-48
2022/01/04 05:58:18;;;;;;;17.73;10.02;;;;;;;;;;5025805;28;20025;-53
2022/01/04 06:00:43;;;;;;;18.20;9.73;;;;;;;;;;5019690;28;20034;-55
2022/01/04 06:03:09;;;;;;;18.52;10.55;;;;;;;;;;5021780;28;20485;-49
2022/01/04 06:05:35;;;;;;;17.55;9.57;;;;;;;;;;5028029;28;20033;-49
2022/01/04 06:08:01;;;;;;;20.52;9.95;;;;;;;;;;5021108;28;20029;-49
2022/01/04 06:10:27;;;;;;;17.40;10.73;;;;;;;;;;5026701;28;20037;-52
2022/01/04 06:15:18;;;;;;;18.45;9.23;;;;;;;;;;5018477;28;20069;-50
2022/01/04 06:17:47;;;;;;;16.90;9.25;;;;;;;;;;5014411;28;20037;-52
2022/01/04 06:20:15;;;;;;;14.88;8.75;;;;;;;;;;5020264;28;20046;-51
2022/01/04 06:22:42;;;;;;;13.85;8.80;;;;;;;;;;5021228;28;20107;-55
2022/01/04 06:25:13;;;;;;;14.45;8.85;;;;;;;;;;5018454;28;20041;-54
2022/01/04 06:27:48;;;;;;;15.70;9.25;;;;;;;;;;5015482;28;20033;-53
2022/01/04 06:30:18;;;;;;;12.55;8.85;;;;;;;;;;5021668;28;20037;-55
2022/01/04 06:32:45;;;;;;;14.88;8.90;;;;;;;;;;5019599;28;20038;-53
2022/01/04 06:35:13;;;;;;;15.18;9.40;;;;;;;;;;5017082;28;20029;-55
2022/01/04 06:37:41;;;;;;;15.52;9.27;;;;;;;;;;5018977;28;20033;-48
2022/01/04 06:40:08;;;;;;;16.35;9.40;;;;;;;;;;5016759;28;20418;-49
2022/01/04 06:42:34;;;;;;;16.63;9.10;;;;;;;;;;5018626;28;20049;-55
2022/01/04 06:45:00;;;;;;;14.55;8.45;;;;;;;;;;5024143;28;20470;-54
2022/01/04 06:47:27;;;;;;;17.10;7.57;;;;;;;;;;5020976;28;20048;-52
2022/01/04 06:49:52;;;;;;;18.58;8.05;;;;;;;;;;5016163;28;20029;-54
2022/01/04 06:52:18;;;;;;;11.93;7.82;;;;;;;;;;5018080;28;20099;-55
2022/01/04 06:54:44;;;;;;;14.18;7.78;;;;;;;;;;5024167;28;20037;-56
2022/01/04 06:57:09;;;;;;;13.68;8.27;;;;;;;;;;5021375;28;20037;-50
2022/01/04 06:59:35;;;;;;;17.58;7.75;;;;;;;;;;5019186;28;20049;-48
2022/01/04 07:02:02;;;;;;;16.88;7.95;;;;;;;;;;5021617;28;20042;-51
2022/01/04 07:04:28;;;;;;;16.55;8.30;;;;;;;;;;5016429;28;20087;-55
2022/01/04 07:06:53;;;;;;;17.33;8.52;;;;;;;;;;5017479;28;20050;-55
2022/01/04 07:09:19;;;;;;;10.95;7.63;;;;;;;;;;5017343;28;20170;-53
2022/01/04 07:11:44;;;;;;;18.75;8.05;;;;;;;;;;5019959;28;20034;-50
2022/01/04 07:14:10;;;;;;;15.48;8.50;;;;;;;;;;5021628;28;20676;-52
2022/01/04 07:16:36;;;;;;;23.27;8.77;;;;;;;;;;5025364;28;20033;-55
2022/01/04 07:19:02;;;;;;;18.20;8.40;;;;;;;;;;5022066;28;20414;-54
2022/01/04 07:21:27;;;;;;;21.70;9.75;;;;;;;;;;5025077;28;23072;-56
2022/01/04 07:23:56;;;;;;;16.42;8.35;;;;;;;;;;5027558;28;20394;-52
2022/01/04 07:26:22;;;;;;;16.75;8.38;;;;;;;;;;5025128;28;20497;-53
2022/01/04 07:28:49;;;;;;;18.85;8.52;;;;;;;;;;5025733;28;20029;-50
2022/01/04 07:31:16;;;;;;;15.77;8.90;;;;;;;;;;5023295;28;20034;-56
2022/01/04 07:33:42;;;;;;;14.88;8.43;;;;;;;;;;5029961;28;20033;-55
2022/01/04 07:36:08;;;;;;;15.10;8.45;;;;;;;;;;5021043;28;20041;-50
2022/01/04 07:38:37;;;;;;;18.02;7.53;;;;;;;;;;5027139;28;20026;-52
2022/01/04 07:41:04;;;;;;;19.42;8.65;;;;;;;;;;5020986;28;20036;-56
2022/01/04 07:43:31;;;;;;;15.95;8.95;;;;;;;;;;5024705;28;20029;-54
2022/01/04 07:45:57;;;;;;;18.05;8.88;;;;;;;;;;5020833;28;20619;-54
2022/01/04 07:48:23;;;;;;;16.65;8.43;;;;;;;;;;5025926;28;20053;-53
2022/01/04 07:50:55;;;;;;;13.73;8.10;;;;;;;;;;5023278;28;20029;-56
2022/01/04 07:53:22;;;;;;;20.45;8.73;;;;;;;;;;5020698;28;20025;-56
2022/01/04 07:55:48;;;;;;;13.57;8.05;;;;;;;;;;5017412;28;20035;-55
2022/01/04 07:58:14;;;;;;;14.00;8.50;;;;;;;;;;5021204;28;20039;-53
2022/01/04 08:00:40;;;;;;;19.70;9.10;;;;;;;;;;5027522;28;20027;-55
2022/01/04 08:03:07;;;;;;;19.02;8.65;;;;;;;;;;5024598;28;20247;-52
2022/01/04 08:05:33;;;;;;;13.60;9.25;;;;;;;;;;5021973;28;20030;-55
2022/01/04 08:07:59;;;;;;;17.85;8.73;;;;;;;;;;5020115;28;20029;-53
2022/01/04 08:10:25;;;;;;;23.33;8.98;;;;;;;;;;5017840;28;20124;-53
2022/01/04 08:12:51;;;;;;;14.15;8.32;;;;;;;;;;5026817;28;20164;-55
2022/01/04 08:15:17;;;;;;;18.05;10.05;;;;;;;;;;5029149;28;20033;-52
2022/01/04 08:17:42;;;;;;;25.23;13.07;;;;;;;;;;5019979;28;20473;-51
2022/01/04 08:20:09;;;;;;;16.17;11.18;;;;;;;;;;5024359;28;20571;-55
2022/01/04 08:22:35;;;;;;;16.38;9.45;;;;;;;;;;5020045;28;20119;-55
2022/01/04 08:25:04;;;;;;;15.98;9.20;;;;;;;;;;5019755;28;20030;-52
2022/01/04 08:27:30;;;;;;;15.82;8.95;;;;;;;;;;5026156;28;20033;-55
2022/01/04 08:29:56;;;;;;;16.25;8.93;;;;;;;;;;5024269;28;20033;-54
2022/01/04 08:32:22;;;;;;;18.48;9.40;;;;;;;;;;5018348;28;20025;-55
2022/01/04 08:34:48;;;;;;;19.60;9.10;;;;;;;;;;5027590;28;20136;-55
2022/01/04 08:37:14;;;;;;;17.58;8.75;;;;;;;;;;5022686;28;20124;-56
2022/01/04 08:39:40;;;;;;;23.20;8.57;;;;;;;;;;5023059;28;20120;-51
2022/01/04 08:42:06;;;;;;;19.17;8.98;;;;;;;;;;5018403;28;20486;-55
2022/01/04 08:44:39;;;;;;;16.40;9.23;;;;;;;;;;5020073;28;20120;-57
2022/01/04 08:47:10;;;;;;;22.02;8.55;;;;;;;;;;5023014;28;20530;-56
2022/01/04 08:49:38;;;;;;;16.80;9.30;;;;;;;;;;5019762;28;20388;-57
2022/01/04 08:52:05;;;;;;;20.60;9.82;;;;;;;;;;5022371;28;20064;-56
2022/01/04 08:54:32;;;;;;;18.75;9.80;;;;;;;;;;5024308;28;20037;-51
2022/01/04 08:56:58;;;;;;;13.93;9.23;;;;;;;;;;5024522;28;20471;-55
2022/01/04 08:59:24;;;;;;;27.23;9.93;;;;;;;;;;5026571;28;20038;-56
2022/01/04 09:01:50;;;;;;;18.45;9.98;;;;;;;;;;5021858;28;20431;-54
2022/01/04 09:04:15;;;;;;;18.13;8.90;;;;;;;;;;5016833;28;20048;-53
2022/01/04 09:06:41;;;;;;;21.67;9.20;;;;;;;;;;5019483;28;20040;-55
2022/01/04 09:09:07;;;;;;;24.58;9.00;;;;;;;;;;5022407;28;20554;-55
2022/01/04 09:11:33;;;;;;;25.02;9.77;;;;;;;;;;5021946;28;20482;-54
2022/01/04 09:14:22;;;;;;;13.20;9.55;;;;;;;;;;5025066;28;20119;-56
2022/01/04 09:19:34;;;;;;;16.45;8.68;;;;;;;;;;5022680;28;20120;-54
2022/01/04 09:22:00;;;;;;;19.73;10.00;;;;;;;;;;5019314;28;20061;-54
2022/01/04 09:24:26;;;;;;;18.08;9.07;;;;;;;;;;5024826;28;20041;-53
2022/01/04 09:26:52;;;;;;;24.00;8.98;;;;;;;;;;5019345;28;20100;-51
2022/01/04 09:29:19;;;;;;;18.15;8.95;;;;;;;;;;5024131;28;20103;-57
2022/01/04 09:31:48;;;;;;;19.48;10.00;;;;;;;;;;5024012;28;20501;-52
2022/01/04 09:34:15;;;;;;;16.60;9.00;;;;;;;;;;5025351;28;20056;-56
2022/01/04 09:36:41;;;;;;;20.65;9.20;;;;;;;;;;5021478;28;20866;-54
2022/01/04 09:39:16;;;;;;;18.95;8.85;;;;;;;;;;5024048;28;20462;-55
2022/01/04 09:41:42;;;;;;;16.83;8.57;;;;;;;;;;5023874;28;20096;-55
2022/01/04 09:44:12;;;;;;;17.60;8.65;;;;;;;;;;5023894;28;20561;-55
2022/01/04 09:46:39;;;;;;;19.42;8.55;;;;;;;;;;5024261;28;20381;-57
2022/01/04 09:49:05;;;;;;;16.98;8.70;;;;;;;;;;5020306;28;20056;-57
2022/01/04 09:51:31;;;;;;;21.98;9.88;;;;;;;;;;5028237;28;20033;-53
2022/01/04 09:53:57;;;;;;;14.18;8.82;;;;;;;;;;5025937;28;20043;-54
2022/01/04 09:56:23;;;;;;;21.00;9.32;;;;;;;;;;5022149;28;20096;-57
2022/01/04 09:58:48;;;;;;;18.88;9.18;;;;;;;;;;5027117;28;20116;-57
2022/01/04 10:01:23;;;;;;;17.88;9.55;;;;;;;;;;5027338;28;20030;-56
2022/01/04 10:03:49;;;;;;;17.30;9.45;;;;;;;;;;5023761;28;20478;-53
2022/01/04 10:06:15;;;;;;;13.98;8.35;;;;;;;;;;5019361;28;20032;-56
2022/01/04 10:09:00;;;;;;;23.83;9.90;;;;;;;;;;5019677;28;20038;-57
2022/01/04 10:11:42;;;;;;;16.92;8.60;;;;;;;;;;5026231;28;20040;-57
2022/01/04 10:14:32;;;;;;;18.60;9.00;;;;;;;;;;5021618;28;20393;-57
2022/01/04 10:16:59;;;;;;;15.77;8.88;;;;;;;;;;5018570;28;20100;-57
2022/01/04 10:19:33;;;;;;;24.55;10.30;;;;;;;;;;5026121;28;20046;-56
2022/01/04 10:22:34;;;;;;;18.05;9.93;;;;;;;;;;5026221;28;20052;-56
2022/01/04 10:25:00;;;;;;;16.42;8.20;;;;;;;;;;5023945;28;20502;-53
2022/01/04 10:27:30;;;;;;;21.45;9.23;;;;;;;;;;5019343;28;20037;-50
2022/01/04 10:30:17;;;;;;;20.42;9.85;;;;;;;;;;5023045;28;20038;-48
2022/01/04 10:32:58;;;;;;;14.00;9.02;;;;;;;;;;5016361;28;20022;-50
2022/01/04 10:35:37;;;;;;;15.70;9.40;;;;;;;;;;5022288;28;20034;-52
2022/01/04 10:38:17;;;;;;;15.43;8.80;;;;;;;;;;5020169;28;20115;-49
2022/01/04 10:40:50;;;;;;;25.00;9.35;;;;;;;;;;5024406;28;20049;-55
2022/01/04 10:43:21;;;;;;;24.15;8.68;;;;;;;;;;5020282;28;20037;-51
2022/01/04 10:45:48;;;;;;;19.35;8.55;;;;;;;;;;5026649;28;20111;-51
2022/01/04 10:48:22;;;;;;;24.15;9.48;;;;;;;;;;5029390;28;20033;-53
2022/01/04 10:50:58;;;;;;;17.40;8.80;;;;;;;;;;5027201;28;20037;-52
2022/01/04 10:53:27;;;;;;;22.13;9.45;;;;;;;;;;5024758;28;20037;-49
2022/01/04 10:56:02;;;;;;;20.17;10.95;;;;;;;;;;5025895;28;20045;-52
2022/01/04 10:58:39;;;;;;;21.60;10.00;;;;;;;;;;5026858;28;20608;-51
2022/01/04 11:01:09;;;;;;;19.58;10.50;;;;;;;;;;5024868;28;20036;-48
2022/01/04 11:03:37;;;;;;;26.65;11.30;;;;;;;;;;5029149;28;20029;-51
2022/01/04 11:06:10;;;;;;;18.27;9.55;;;;;;;;;;5025112;28;20041;-52
2022/01/04 11:08:37;;;;;;;25.63;9.82;;;;;;;;;;5023111;28;20030;-52
2022/01/04 11:11:04;;;;;;;19.85;10.65;;;;;;;;;;5026511;28;20074;-50
2022/01/04 11:13:30;;;;;;;21.30;10.82;;;;;;;;;;5026881;28;20029;-48
2022/01/04 11:15:57;;;;;;;26.15;11.25;;;;;;;;;;5025626;28;20034;-48
2022/01/04 11:18:25;;;;;;;18.95;9.27;;;;;;;;;;5026262;28;20040;-50
2022/01/04 11:20:51;;;;;;;21.88;10.40;;;;;;;;;;5024596;28;20036;-51
2022/01/04 11:23:22;;;;;;;21.73;9.57;;;;;;;;;;5026766;28;20056;-49
2022/01/04 11:25:48;;;;;;;22.30;10.07;;;;;;;;;;5024912;28;20030;-51
2022/01/04 11:28:15;;;;;;;22.35;10.52;;;;;;;;;;5024337;28;20036;-50
2022/01/04 11:31:08;;;;;;;14.77;9.10;;;;;;;;;;5028706;28;20033;-49
2022/01/04 11:34:14;;;;;;;28.13;9.50;;;;;;;;;;5023471;28;20137;-50
2022/01/04 11:36:47;;;;;;;16.23;9.02;;;;;;;;;;5007639;28;20152;-48
2022/01/04 11:39:26;;;;;;;22.92;10.93;;;;;;;;;;5002021;28;20074;-51
2022/01/04 11:41:53;;;;;;;18.45;10.75;;;;;;;;;;4996023;28;20569;-50
2022/01/04 11:44:23;;;;;;;21.48;11.98;;;;;;;;;;4999747;28;20120;-51
2022/01/04 11:47:08;;;;;;;17.88;10.32;;;;;;;;;;4998098;28;20505;-51
2022/01/04 11:49:38;;;;;;;15.15;10.63;;;;;;;;;;5003753;28;20033;-51
2022/01/04 11:52:09;;;;;;;23.75;12.25;;;;;;;;;;4994197;28;20468;-50
2022/01/04 11:54:35;;;;;;;19.00;11.00;;;;;;;;;;5002423;28;20079;-50
2022/01/04 11:57:15;;;;;;;22.45;9.80;;;;;;;;;;4998560;28;20038;-52
2022/01/04 11:59:47;;;;;;;14.68;9.27;;;;;;;;;;5000545;28;20397;-49
2022/01/04 12:02:25;;;;;;;20.92;10.82;;;;;;;;;;5003739;28;20033;-52
2022/01/04 12:04:54;;;;;;;17.42;9.90;;;;;;;;;;5008769;28;20084;-55
2022/01/04 12:07:52;;;;;;;22.83;9.07;;;;;;;;;;4993997;28;20491;-49
2022/01/04 12:10:18;;;;;;;18.48;8.55;;;;;;;;;;4963347;28;20042;-49
2022/01/04 12:13:00;;;;;;;15.70;7.53;;;;;;;;;;4964432;28;20037;-51
2022/01/04 12:15:34;;;;;;;20.65;8.45;;;;;;;;;;4940471;29;20040;-49
2022/01/04 12:18:28;;;;;;;25.60;9.30;;;;;;;;;;4933698;29;20043;-52
2022/01/04 12:20:56;;;;;;;21.25;8.77;;;;;;;;;;4939007;29;20040;-48
2022/01/04 12:23:35;;;;;;;27.15;12.90;;;;;;;;;;4939070;29;20055;-50
2022/01/04 12:26:13;;;;;;;20.95;8.82;;;;;;;;;;4937139;29;20050;-55
2022/01/04 12:28:43;;;;;;;17.42;8.57;;;;;;;;;;4943848;29;20967;-48
2022/01/04 12:31:18;;;;;;;13.93;7.43;;;;;;;;;;4941973;29;20051;-49
2022/01/04 12:33:45;;;;;;;15.38;9.27;;;;;;;;;;4941037;29;20094;-51
2022/01/04 12:36:26;;;;;;;14.20;9.27;;;;;;;;;;4939528;29;20039;-53
2022/01/04 12:38:53;;;;;;;14.25;9.10;;;;;;;;;;4939702;29;20048;-52
2022/01/04 12:41:20;;;;;;;21.70;9.80;;;;;;;;;;4941736;28;20047;-49
2022/01/04 12:43:47;;;;;;;24.20;9.55;;;;;;;;;;4923641;29;20609;-49
2022/01/04 12:46:29;;;;;;;25.65;10.10;;;;;;;;;;4994544;28;20037;-57
2022/01/04 12:48:56;;;;;;;;;;;;;;;;;;5021822;28;20088;-53
2022/01/04 12:51:25;;;;;;;22.35;9.40;;;;;;;;;;5022935;28;19917;-54
2022/01/04 12:53:52;;;;;;;18.08;9.52;;;;;;;;;;5022470;28;20038;-49
2022/01/04 12:56:18;;;;;;;15.40;8.43;;;;;;;;;;5020345;28;20112;-49
2022/01/04 12:58:43;;;;;;;20.75;9.15;;;;;;;;;;5020502;28;20116;-51
2022/01/04 13:01:11;;;;;;;16.92;8.45;;;;;;;;;;5022777;28;20046;-52
2022/01/04 13:03:37;;;;;;;15.35;7.10;;;;;;;;;;5027203;28;20037;-50
2022/01/04 13:06:04;;;;;;;12.18;6.88;;;;;;;;;;5024223;28;20033;-57
2022/01/04 13:08:35;;;;;;;17.02;8.10;;;;;;;;;;5021713;28;20100;-50
2022/01/04 13:11:05;;;;;;;18.00;7.85;;;;;;;;;;5020132;28;20065;-51
2022/01/04 13:13:31;;;;;;;14.23;8.10;;;;;;;;;;5028092;28;20048;-56
2022/01/04 13:16:22;;;;;;;9.40;6.60;;;;;;;;;;5026613;28;20128;-54
2022/01/04 13:18:48;;;;;;;10.50;7.18;;;;;;;;;;5018838;28;20518;-53
2022/01/04 13:21:15;;;;;;;19.70;7.95;;;;;;;;;;5058731;28;20072;-51
2022/01/04 13:23:43;;;;;;;16.65;7.97;;;;;;;;;;5023225;28;20134;-52
2022/01/04 13:26:11;;;;;;;15.10;7.68;;;;;;;;;;5021991;28;20030;-49
2022/01/04 13:28:40;;;;;;;13.50;6.53;;;;;;;;;;5026524;28;20037;-51
2022/01/04 13:31:18;;;;;;;11.27;6.45;;;;;;;;;;5027018;28;20033;-48
2022/01/04 13:33:44;;;;;;;12.93;6.78;;;;;;;;;;5024381;28;20374;-52
2022/01/04 13:36:10;;;;;;;13.85;7.03;;;;;;;;;;5019636;28;20030;-51
2022/01/04 13:38:37;;;;;;;12.60;7.55;;;;;;;;;;5023406;28;20025;-49
2022/01/04 13:41:05;;;;;;;13.35;8.23;;;;;;;;;;5023030;28;20105;-56
2022/01/04 13:43:39;;;;;;;13.15;8.65;;;;;;;;;;5022417;28;20026;-55
2022/01/04 13:46:12;;;;;;;29.95;18.60;;;;;;;;;;5021110;28;20029;-52
2022/01/04 13:48:39;;;;;;;;;;;;;;;;;;5028032;28;20406;-51
2022/01/04 13:51:16;;;;;;;26.48;16.17;;;;;;;;;;5015944;28;19924;-51
2022/01/04 13:53:47;;;;;;;35.80;24.65;;;;;;;;;;5016747;28;20030;-52
2022/01/04 13:56:18;;;;;;;31.92;22.80;;;;;;;;;;5021225;28;20030;-51
2022/01/04 13:58:52;;;;;;;23.35;15.90;;;;;;;;;;5022695;28;20033;-55
2022/01/04 14:01:31;;;;;;;17.00;7.85;;;;;;;;;;5021682;28;20037;-54
2022/01/04 14:04:10;;;;;;;12.02;6.82;;;;;;;;;;5020810;28;20030;-51
2022/01/04 14:06:52;;;;;;;12.38;6.65;;;;;;;;;;5025376;28;20113;-49
2022/01/04 14:09:26;;;;;;;16.70;9.98;;;;;;;;;;5018774;28;20498;-54
2022/01/04 14:12:04;;;;;;;18.75;10.40;;;;;;;;;;5021847;28;20109;-56
2022/01/04 14:14:51;;;;;;;18.35;9.18;;;;;;;;;;5021022;28;20079;-56
2022/01/04 14:17:18;;;;;;;10.52;6.40;;;;;;;;;;5019080;28;20048;-53
2022/01/04 14:19:49;;;;;;;13.90;7.03;;;;;;;;;;5020852;28;20045;-50
2022/01/04 14:22:26;;;;;;;14.32;6.75;;;;;;;;;;5020039;28;20709;-53
2022/01/04 14:25:06;;;;;;;10.43;7.32;;;;;;;;;;5031609;28;20040;-54
2022/01/04 14:27:37;;;;;;;17.65;6.95;;;;;;;;;;5023813;28;20026;-56
2022/01/04 14:30:07;;;;;;;13.00;8.38;;;;;;;;;;5023951;28;20064;-50
2022/01/04 14:32:36;;;;;;;11.55;8.02;;;;;;;;;;5025481;28;20045;-49
2022/01/04 14:35:26;;;;;;;13.32;8.23;;;;;;;;;;5027169;28;20120;-51
2022/01/04 14:37:54;;;;;;;10.60;7.13;;;;;;;;;;5022102;28;20030;-49
2022/01/04 14:40:22;;;;;;;8.63;6.30;;;;;;;;;;5027029;28;20033;-50
2022/01/04 14:42:49;;;;;;;12.45;6.28;;;;;;;;;;5026823;28;20107;-53
2022/01/04 14:45:16;;;;;;;10.07;5.88;;;;;;;;;;5029919;28;20622;-53